Station: Busselton Airport

  Atmospheric Gas Attenuation - ITU Rec 676-11   --------------- db/100km ---------------
Date Time Temp RH % AH g/m3 Dew Point Wind Direction Speed kph Gust kph Barometer mB Rainfall Since 9am 24GHz 47GHz 76GHz 122GHz 134GHz 241GHz
04 03:40 7.8 99 8.08 7.7 24 28 1010.8 0.2 18.8 26.7 40.6 106.5 98.8 339.1
04 03:30 7.8 98 8 7.5 19 22 1010.6 0.2 18.6 26.6 40.2 105.6 97.7 335.1
04 03:20 7.8 96 7.84 7.2 19 20 1010.6 0.2 18.2 26.3 39.6 103.8 95.4 327.3
04 03:10 8.1 94 7.82 7.2 17 19 1010.5 0.2 18.2 26.2 39.3 103.2 94.8 325.0
04 03:00 8.4 93 7.89 7.3 15 19 1010.3 0.2 18.3 26.2 39.5 103.5 95.3 327.1
04 02:50 8.6 92 7.91 7.4 15 17 1010.4 0.2 18.4 26.2 39.4 103.5 95.4 327.3
04 02:40 8.7 91 7.87 7.3 19 20 1010.5 0.2 18.3 26.1 39.2 102.9 94.7 324.9
04 02:30 9 90 7.94 7.5 20 26 1010.3 0.2 18.4 26.1 39.4 103.3 95.3 327.0
04 02:20 9.3 89 8 7.6 20 22 1010.2 0.2 18.5 26.1 39.5 103.6 95.7 328.6
04 02:10 9.3 89 8 7.6 22 24 1010.2 0.2 18.5 26.1 39.5 103.6 95.7 328.6
04 02:00 9.4 90 8.14 7.8 22 30 1010.2 0.2 18.8 26.3 40.0 105.0 97.5 334.9
04 01:50 9.3 92 8.27 8.1 26 30 1010.4 0.2 19.1 26.6 40.6 106.6 99.5 341.7
04 01:30 9.1 92 8.17 7.9 17 22 1010.6 0.2 18.9 26.5 40.3 105.8 98.4 337.8
04 01:20 9.2 92 8.22 8 19 20 1010.2 0.2 19.0 26.5 40.4 106.1 98.9 339.6
04 01:10 9.1 93 8.25 8 17 19 1010 0.2 19.1 26.6 40.6 106.6 99.4 341.5
04 01:00 9.1 94 8.34 8.2 17 20 1009.7 0.2 19.3 26.7 41.0 107.6 100.6 345.8
04 00:50 8.8 94 8.18 7.9 17 19 1009.6 0.2 18.9 26.5 40.4 106.2 98.8 339.3
04 00:40 8.7 93 8.05 7.6 15 17 1009.6 0.2 18.7 26.3 39.9 104.9 97.1 333.4
04 00:30 8.7 92 7.96 7.5 17 20 1009.5 0.2 18.5 26.2 39.6 103.8 95.9 329.0
04 00:20 8.9 91 7.97 7.5 15 17 1009.3 0.2 18.5 26.1 39.5 103.7 95.7 328.6
04 00:10 9.1 91 8.08 7.7 15 19 1009.3 0.2 18.7 26.3 39.9 104.6 97.0 333.0
04 00:00 9.1 91 8.08 7.7 17 22 1009.5 0.2 18.7 26.3 39.9 104.6 97.0 333.1
03 23:50 9.1 91 8.08 7.7 19 20 1009.7 0.2 18.7 26.3 39.9 104.7 97.0 333.2
03 23:40 8.9 91 7.97 7.5 17 20 1009.7 0.2 18.5 26.2 39.5 103.7 95.8 328.7
03 23:30 8.7 91 7.87 7.3 13 17 1009.7 0.2 18.3 26.0 39.2 102.8 94.7 324.7
03 23:20 9 89 7.85 7.3 15 17 1009.7 0.2 18.2 25.9 39.0 102.2 94.0 322.5
03 23:10 9.1 88 7.81 7.2 15 17 1009.7 0.2 18.1 25.8 38.7 101.7 93.3 320.2
03 23:00 9.1 89 7.9 7.4 17 24 1009.7 0.2 18.3 26.0 39.1 102.7 94.6 324.5
03 22:50 9.1 88 7.81 7.2 17 19 1009.5 0.2 18.1 25.8 38.7 101.6 93.3 320.1
03 22:40 9.2 89 7.95 7.5 15 17 1009.5 0.2 18.4 26.0 39.3 103.1 95.1 326.4
03 22:30 9 87 7.67 7 13 17 1008.8 0.2 17.8 25.6 38.2 100.1 91.5 313.7
03 22:20 9.3 87 7.82 7.3 13 15 1009.2 0.2 18.1 25.8 38.7 101.5 93.2 319.7
03 22:10 9.4 87 7.87 7.3 17 20 1009.5 0.2 18.2 25.8 38.8 101.9 93.8 321.8
03 22:00 9.6 86 7.88 7.4 17 22 1009.5 0.2 18.2 25.8 38.8 101.8 93.7 321.4
03 21:50 9.8 85 7.89 7.4 15 19 1009.5 0.2 18.3 25.8 38.7 101.6 93.6 321.1
03 21:40 10.2 84 8 7.6 17 20 1009.6 0.2 18.5 25.8 39.0 102.3 94.6 324.7
03 21:30 10.4 83 8 7.6 17 24 1009.6 0.2 18.5 25.8 38.9 102.0 94.3 323.8
03 21:20 10.4 84 8.1 7.8 13 17 1009.6 0.2 18.7 25.9 39.3 103.1 95.7 328.6
03 21:10 10.4 84 8.1 7.8 17 20 1009.8 0.2 18.7 25.9 39.3 103.2 95.7 328.6
03 21:00 10.3 85 8.14 7.9 19 28 1009.9 0.2 18.8 26.0 39.5 103.7 96.4 331.0
03 20:50 9.9 85 7.94 7.5 15 17 1009.9 0.2 18.4 25.8 38.9 102.1 94.1 323.1
03 20:40 9.6 85 7.79 7.2 17 17 1009.9 0.2 18.1 25.7 38.4 100.8 92.5 317.2
03 20:30 9.6 84 7.7 7 17 22 1009.7 0.2 17.9 25.5 38.1 99.8 91.2 312.9
03 20:20 9.7 83 7.65 7 19 22 1009.7 0.2 17.7 25.4 37.8 99.1 90.5 310.2
03 20:10 9.5 82 7.47 6.6 17 19 1009.7 0.2 17.4 25.2 37.2 97.4 88.3 302.5
03 20:00 9.5 81 7.38 6.4 17 20 1009.6 0.2 17.2 25.0 36.8 96.4 87.1 298.3
03 19:50 9.4 82 7.42 6.5 17 20 1009.5 0.2 17.3 25.1 37.0 97.0 87.7 300.5
03 19:40 9.1 82 7.28 6.2 17 19 1009.4 0.2 17.0 24.9 36.6 95.8 86.2 295.0
03 19:30 8.9 82 7.19 6 13 15 1009.4 0.2 16.8 24.9 36.3 95.1 85.2 291.6
03 19:20 8.9 80 7.01 5.6 13 15 1009.3 0.2 16.4 24.6 35.6 93.1 82.8 283.2
03 19:10 9.2 78 6.97 5.6 13 15 1009.5 0.2 16.3 24.4 35.3 92.4 81.9 280.3
03 19:00 8.6 80 6.88 5.4 15 19 1009.4 0.2 16.1 24.4 35.2 92.1 81.4 278.2
03 18:50 8.2 80 6.7 5 13 13 1009.2 0.2 15.8 24.2 34.6 90.6 79.4 271.2
03 18:40 8.9 77 6.75 5.1 13 13 1009 0.2 15.8 24.1 34.5 90.3 79.3 271.1
03 18:30 9.5 75 6.83 5.3 15 17 1008.9 0.2 16.0 24.1 34.6 90.5 79.7 272.6
03 18:20 9.8 75 6.96 5.6 17 17 1008.7 0.2 16.3 24.2 34.9 91.5 81.1 277.5
03 18:10 9.6 76 6.96 5.6 17 17 1008.5 0.2 16.3 24.3 35.0 91.7 81.3 278.2
03 18:00 9.6 75 6.87 5.4 15 17 1008.5 0.2 16.1 24.1 34.7 90.7 80.1 274.0
03 17:50 10.2 73 6.95 5.6 15 17 1008.4 0.2 16.2 24.1 34.7 90.9 80.6 275.6
03 17:40 10.4 72 6.94 5.6 13 17 1008.3 0.2 16.2 24.0 34.6 90.5 80.2 274.4
03 17:30 10.9 70 6.96 5.7 15 20 1008.1 0.2 16.2 23.9 34.4 90.2 79.9 273.5
03 17:20 11.6 67 6.96 5.7 15 17 1008 0.2 16.2 23.7 34.1 89.4 79.2 271.1
03 17:10 11.9 66 6.99 5.8 13 15 1007.9 0.2 16.2 23.7 34.1 89.3 79.3 271.4
03 17:00 12.5 63 6.93 5.7 15 20 1007.8 0.2 16.1 23.4 33.6 88.0 77.9 266.7
03 16:50 12.9 62 6.99 5.8 17 20 1007.8 0.2 16.2 23.4 33.7 88.2 78.3 268.0
03 16:40 13 65 7.37 6.6 15 17 1007.7 0.2 17.0 24.0 35.1 92.0 83.0 284.4
03 16:30 13.1 65 7.42 6.7 11 17 1007.3 0.2 17.1 24.0 35.2 92.3 83.5 286.2
03 16:20 12.6 62 6.86 5.5 17 17 1007.2 0.2 15.9 23.3 33.3 87.2 76.9 263.1
03 16:10 13.1 61 6.96 5.8 19 20 1007.5 0.2 16.1 23.3 33.5 87.6 77.7 265.9
03 16:00 13.3 63 7.28 6.4 15 20 1007.5 0.2 16.8 23.7 34.6 90.7 81.5 279.3
03 15:50 12.7 65 7.24 6.3 17 19 1007.5 0.2 16.7 23.8 34.7 90.9 81.6 279.6
03 15:40 13.1 65 7.42 6.7 13 15 1007.5 0.2 17.1 24.0 35.2 92.3 83.5 286.2
03 15:30 12.9 63 7.1 6 19 28 1007.4 0.2 16.4 23.6 34.1 89.3 79.6 272.7
03 15:20 13.5 61 7.14 6.1 26 30 1007.4 0.2 16.5 23.5 34.0 89.0 79.5 272.4
03 15:10 12.9 63 7.1 6 19 22 1007.2 0.2 16.4 23.5 34.1 89.3 79.6 272.7
03 15:00 13.6 64 7.53 6.9 19 24 1007.1 0.2 17.3 24.0 35.4 92.8 84.3 289.2
03 14:50 13.9 65 7.79 7.4 19 24 1007 0.2 17.9 24.3 36.3 95.2 87.3 299.6
03 14:40 13.5 65 7.6 7.1 19 28 1007 0.2 17.5 24.2 35.7 93.7 85.3 292.7
03 14:30 13.2 65 7.46 6.8 20 24 1007 0.2 17.2 24.0 35.3 92.6 83.8 287.5
03 14:20 13.7 65 7.7 7.2 22 26 1007.1 0.2 17.7 24.3 36.0 94.5 86.4 296.4
03 14:10 13.2 65 7.46 6.8 22 24 1007.2 0.2 17.2 24.0 35.3 92.6 83.9 287.6
03 14:00 13.4 65 7.56 7 20 28 1007.1 0.2 17.4 24.1 35.6 93.4 84.9 291.3
03 13:50 13 69 7.83 7.5 19 20 1007 0.2 18.0 24.7 36.9 96.7 88.8 304.9
03 13:40 13.3 68 7.86 7.5 22 24 1007 0.2 18.0 24.6 36.8 96.6 88.9 305.1
03 13:30 14.3 65 7.99 7.8 17 22 1007 0.2 18.3 24.6 36.9 96.7 89.4 307.0
03 13:20 13.8 67 7.98 7.8 19 20 1007.2 0.2 18.3 24.7 37.1 97.3 89.8 308.6
03 13:10 13.5 65 7.6 7.1 20 22 1007.3 0.2 17.5 24.2 35.7 93.7 85.3 292.7
03 13:00 12.9 66 7.44 6.7 20 30 1007.5 0.2 17.2 24.1 35.4 92.8 84.0 287.8
03 12:50 13.1 66 7.53 6.9 19 24 1007.6 0.2 17.3 24.2 35.7 93.5 84.9 291.2
03 12:40 13.1 65 7.42 6.7 22 28 1007.6 0.2 17.1 24.0 35.2 92.3 83.5 286.2
03 12:30 12.5 69 7.59 7 22 30 1007.6 0.2 17.5 24.4 36.2 94.8 86.3 296.1
03 12:20 12.9 71 8 7.8 24 30 1007.6 0.2 18.4 25.0 37.6 98.6 91.2 313.2
03 12:10 12.6 73 8.08 7.9 20 26 1007.7 0.2 18.5 25.2 38.1 99.9 92.6 318.0
03 12:00 11.8 78 8.21 8.1 20 26 1007.8 0.2 18.9 25.6 39.0 102.3 95.3 327.4
03 11:50 11.2 82 8.31 8.2 17 19 1008.2 0.2 19.1 26.0 39.7 104.2 97.4 334.7
03 11:40 10.9 83 8.26 8.1 17 19 1008.3 0 19.0 26.0 39.6 104.1 97.1 333.7
03 11:30 10.9 85 8.46 8.5 15 20 1008.5 0 19.4 26.3 40.5 106.3 99.8 343.2
03 11:20 10.7 82 8.06 7.8 17 20 1008.6 0 18.6 25.7 38.9 102.2 94.7 325.1
03 11:10 10.6 84 8.2 8 15 17 1008.6 0 18.9 26.0 39.6 103.9 96.7 332.2
03 11:00 10.4 83 8 7.6 19 24 1008.7 0 18.5 25.7 38.8 101.9 94.3 323.6

Last Refresh: 04-Aug-2020 05:28:21

Most of the information presented on this site is sourced from the Bureau of Meteorology.  Copyright in all material sourced from the Bureau of Meteorology resides with the Commonwealth of Australia.